createdAt,value
2019-02-26T00:03:35.287Z,91.40
2019-02-26T00:07:37.800Z,91.30
2019-02-26T00:11:41.355Z,91.10
2019-02-26T00:15:45.910Z,91.10
2019-02-26T00:19:50.135Z,90.40
2019-02-26T00:23:53.695Z,89.50
2019-02-26T00:27:58.649Z,90.60
2019-02-26T00:32:02.319Z,90.40
2019-02-26T00:36:07.166Z,91.10
2019-02-26T00:40:12.379Z,91.80
2019-02-26T00:44:18.612Z,91.60
2019-02-26T00:48:21.973Z,91.90
2019-02-26T00:52:25.534Z,92.20
2019-02-26T00:56:29.837Z,92.40
2019-02-26T01:00:35.490Z,92.30
2019-02-26T01:04:41.369Z,92.40
2019-02-26T01:08:45.259Z,91.90
2019-02-26T01:12:49.899Z,91.70
2019-02-26T01:16:53.449Z,91.90
2019-02-26T01:20:57.902Z,91.90
2019-02-26T01:25:02.229Z,91.90
2019-02-26T01:29:05.856Z,92.10
2019-02-26T01:33:09.768Z,92.40
2019-02-26T01:37:13.483Z,92.50
2019-02-26T01:41:18.004Z,92.70
2019-02-26T01:45:24.265Z,92.50
2019-02-26T01:49:28.488Z,92.60
2019-02-26T01:53:32.176Z,92.60
2019-02-26T01:57:35.998Z,92.80
2019-02-26T02:01:42.153Z,92.60
2019-02-26T02:05:45.760Z,91.20
2019-02-26T02:09:51.300Z,91.30
2019-02-26T02:13:55.169Z,91.60
2019-02-26T02:17:59.542Z,91.70
2019-02-26T02:22:03.931Z,91.70
2019-02-26T02:26:09.381Z,91.20
2019-02-26T02:30:22.621Z,91.00
2019-02-26T02:34:23.688Z,90.10
2019-02-26T02:38:26.687Z,90.20
2019-02-26T02:42:30.238Z,89.00
2019-02-26T02:46:34.240Z,90.50
2019-02-26T02:50:38.921Z,90.70
2019-02-26T02:54:44.206Z,90.70
2019-02-26T02:58:50.994Z,90.40
2019-02-26T03:02:53.099Z,91.50
2019-02-26T03:06:58.750Z,92.90
2019-02-26T03:11:02.482Z,93.10
2019-02-26T03:15:10.158Z,92.40
2019-02-26T03:19:14.543Z,91.90
2019-02-26T03:23:19.929Z,91.70
2019-02-26T03:27:27.748Z,92.10
2019-02-26T03:31:33.879Z,91.60
2019-02-26T03:35:33.569Z,91.00
2019-02-26T03:39:37.129Z,91.70
2019-02-26T03:43:41.789Z,92.10
2019-02-26T03:47:45.537Z,91.80
2019-02-26T03:51:49.117Z,91.70
2019-02-26T03:55:52.747Z,91.70
2019-02-26T03:59:56.376Z,91.60
2019-02-26T04:04:02.348Z,92.10
2019-02-26T04:08:05.230Z,91.90
2019-02-26T04:12:11.227Z,91.50
2019-02-26T04:16:13.219Z,91.60
2019-02-26T04:20:17.013Z,92.00
2019-02-26T04:24:20.596Z,93.50
2019-02-26T04:28:44.793Z,92.70
2019-02-26T04:33:11.657Z,92.40
2019-02-26T04:37:27.487Z,92.60
2019-02-26T04:41:37.446Z,93.20
2019-02-26T04:45:50.019Z,93.60
2019-02-26T04:49:54.398Z,94.30
2019-02-26T04:53:59.494Z,94.10
2019-02-26T04:58:03.999Z,93.40
2019-02-26T05:02:07.575Z,93.20
2019-02-26T05:06:11.137Z,92.90
2019-02-26T05:10:14.706Z,92.90
2019-02-26T05:14:22.909Z,91.70
2019-02-26T05:18:25.874Z,92.70
2019-02-26T05:22:31.001Z,92.60
2019-02-26T05:26:33.976Z,91.50
2019-02-26T05:30:38.302Z,91.90
2019-02-26T05:34:45.297Z,91.80
2019-02-26T05:38:49.285Z,92.00
2019-02-26T05:42:53.908Z,91.80
2019-02-26T05:46:58.771Z,92.20
2019-02-26T05:51:05.113Z,92.50
2019-02-26T05:55:08.435Z,93.60
2019-02-26T05:59:15.903Z,93.40
2019-02-26T06:03:20.556Z,94.00
2019-02-26T06:07:27.164Z,94.60
2019-02-26T06:11:33.210Z,94.80
2019-02-26T06:15:34.218Z,94.60
2019-02-26T06:19:44.970Z,94.20
2019-02-26T06:23:53.250Z,94.10
2019-02-26T06:27:56.810Z,93.50
2019-02-26T06:32:14.543Z,93.80
2019-02-26T06:36:19.234Z,93.70
2019-02-26T06:40:23.750Z,93.30
2019-02-26T06:44:27.306Z,92.70
2019-02-26T06:48:32.335Z,92.90
2019-02-26T06:52:38.191Z,93.00
2019-02-26T06:56:43.768Z,93.20
2019-02-26T07:00:48.159Z,93.20
2019-02-26T07:04:51.980Z,92.90
2019-02-26T07:08:55.625Z,93.20
2019-02-26T07:12:59.190Z,92.80
2019-02-26T07:17:02.793Z,92.40
2019-02-26T07:21:06.364Z,91.80
2019-02-26T07:25:13.063Z,90.90
2019-02-26T07:29:17.565Z,89.40
2019-02-26T07:33:20.959Z,86.10
2019-02-26T07:37:24.634Z,83.30
2019-02-26T07:41:30.337Z,82.10
2019-02-26T07:45:33.445Z,82.50
2019-02-26T07:49:37.038Z,84.40
2019-02-26T07:53:44.389Z,78.90
2019-02-26T07:57:48.000Z,76.40
2019-02-26T08:01:51.091Z,75.60
2019-02-26T08:05:54.652Z,75.60
2019-02-26T08:09:58.218Z,75.20
2019-02-26T08:14:01.765Z,77.50
2019-02-26T08:18:05.400Z,75.90
2019-02-26T08:22:09.020Z,74.40
2019-02-26T08:26:12.570Z,77.40
2019-02-26T08:30:18.790Z,76.00
2019-02-26T08:34:21.892Z,71.40
2019-02-26T08:38:29.437Z,70.40
2019-02-26T08:42:30.681Z,70.50
2019-02-26T08:46:34.244Z,69.90
2019-02-26T08:50:38.975Z,68.80
2019-02-26T08:54:43.023Z,66.70
2019-02-26T08:58:46.607Z,67.20
2019-02-26T09:02:53.686Z,69.20
2019-02-26T09:06:57.088Z,67.80
2019-02-26T09:11:01.544Z,67.70
2019-02-26T09:15:09.151Z,65.30
2019-02-26T09:19:12.726Z,63.70
2019-02-26T09:23:18.834Z,65.80
2019-02-26T09:27:21.546Z,69.50
2019-02-26T09:31:25.110Z,66.20
2019-02-26T09:35:30.696Z,67.00
2019-02-26T09:39:36.045Z,68.40
2019-02-26T09:43:40.843Z,67.80
2019-02-26T09:47:44.939Z,67.20
2019-02-26T09:51:49.623Z,67.10
2019-02-26T09:55:53.237Z,68.60
2019-02-26T09:59:58.182Z,67.00
2019-02-26T10:04:03.613Z,66.20
2019-02-26T10:08:07.253Z,66.30
2019-02-26T10:12:15.127Z,64.70
2019-02-26T10:16:16.027Z,65.80
2019-02-26T10:20:27.303Z,65.90
2019-02-26T10:24:32.158Z,63.50
2019-02-26T10:28:37.326Z,63.90
2019-02-26T10:32:40.383Z,61.60
2019-02-26T10:36:46.482Z,60.30
2019-02-26T10:40:53.961Z,61.80
2019-02-26T10:44:54.399Z,58.70
2019-02-26T10:48:57.972Z,56.20
2019-02-26T10:53:07.253Z,56.10
2019-02-26T10:57:08.551Z,54.70
2019-02-26T11:01:11.960Z,48.50
2019-02-26T11:05:19.711Z,49.00
2019-02-26T11:09:25.392Z,47.40
2019-02-26T11:13:26.336Z,46.70
2019-02-26T11:17:31.620Z,47.80
2019-02-26T11:21:35.286Z,47.50
2019-02-26T11:25:39.147Z,48.90
2019-02-26T11:29:42.703Z,49.20
2019-02-26T11:33:48.077Z,47.10
2019-02-26T11:37:52.354Z,43.40
2019-02-26T11:41:58.649Z,44.80
2019-02-26T11:46:03.726Z,44.70
2019-02-26T11:50:11.855Z,47.40
2019-02-26T11:54:17.554Z,45.70
2019-02-26T11:58:22.318Z,44.30
2019-02-26T12:02:31.368Z,47.00
2019-02-26T12:06:31.339Z,44.10
2019-02-26T12:10:35.904Z,44.40
2019-02-26T12:14:43.109Z,46.70
2019-02-26T12:18:46.969Z,43.10
2019-02-26T12:22:52.362Z,47.20
2019-02-26T12:26:56.328Z,46.90
2019-02-26T12:31:01.250Z,45.20
2019-02-26T12:35:08.731Z,45.10
2019-02-26T12:39:12.250Z,46.30
2019-02-26T12:43:18.338Z,45.90
2019-02-26T12:47:21.780Z,45.50
2019-02-26T12:51:28.178Z,48.60
2019-02-26T12:55:34.896Z,49.20
2019-02-26T12:59:36.890Z,46.50
2019-02-26T13:03:42.833Z,44.40
2019-02-26T13:07:45.746Z,44.80
2019-02-26T13:12:01.199Z,47.90
2019-02-26T13:15:54.543Z,45.70
2019-02-26T13:19:58.879Z,41.60
2019-02-26T13:24:11.660Z,41.30
2019-02-26T13:28:08.591Z,44.60
2019-02-26T13:32:13.665Z,46.20
2019-02-26T13:36:17.699Z,47.60
2019-02-26T13:40:23.187Z,45.60
2019-02-26T13:44:26.761Z,46.90
2019-02-26T13:48:30.405Z,48.50
2019-02-26T13:52:33.998Z,49.60
2019-02-26T13:56:37.496Z,49.60
2019-02-26T14:00:41.424Z,48.50
2019-02-26T14:04:44.991Z,47.60
2019-02-26T14:08:48.572Z,47.30
2019-02-26T14:12:52.427Z,49.30
2019-02-26T14:16:55.986Z,48.10
2019-02-26T14:20:59.547Z,47.90
2019-02-26T14:25:03.116Z,48.60
2019-02-26T14:29:06.689Z,48.30
2019-02-26T14:33:10.259Z,46.40
2019-02-26T14:37:13.810Z,46.70
2019-02-26T14:41:17.393Z,49.70
2019-02-26T14:45:22.458Z,43.40
2019-02-26T14:49:26.895Z,44.10
2019-02-26T14:53:30.486Z,44.30
2019-02-26T14:57:34.051Z,47.00
2019-02-26T15:01:37.615Z,43.80
2019-02-26T15:05:41.179Z,45.50
2019-02-26T15:09:44.748Z,46.60
2019-02-26T15:13:48.332Z,48.40
2019-02-26T15:17:53.008Z,47.80
2019-02-26T15:21:57.245Z,47.90
2019-02-26T15:26:00.978Z,46.20
2019-02-26T15:30:07.355Z,46.20
2019-02-26T15:34:10.951Z,46.20
2019-02-26T15:38:14.531Z,49.30
2019-02-26T15:42:19.140Z,49.60
2019-02-26T15:46:23.303Z,50.10
2019-02-26T15:50:26.858Z,49.30
2019-02-26T15:54:30.459Z,48.60
2019-02-26T15:58:34.321Z,47.50
2019-02-26T16:02:38.291Z,48.40
2019-02-26T16:06:41.866Z,50.60
2019-02-26T16:10:45.633Z,51.20
2019-02-26T16:14:49.222Z,53.80
2019-02-26T16:18:52.784Z,58.40
2019-02-26T16:22:56.401Z,53.90
2019-02-26T16:26:59.915Z,57.50
2019-02-26T16:31:04.625Z,55.00
2019-02-26T16:35:08.369Z,56.10
2019-02-26T16:39:11.928Z,56.90
2019-02-26T16:43:17.073Z,60.40
2019-02-26T16:47:20.706Z,58.40
2019-02-26T16:51:24.386Z,62.30
2019-02-26T16:55:27.965Z,63.20
2019-02-26T16:59:31.527Z,65.00
2019-02-26T17:03:35.086Z,67.20
2019-02-26T17:07:38.657Z,66.60
2019-02-26T17:11:44.446Z,71.00
2019-02-26T17:15:47.590Z,73.10
2019-02-26T17:19:51.166Z,72.50
2019-02-26T17:23:54.749Z,77.10
2019-02-26T17:27:58.315Z,78.90
2019-02-26T17:32:04.754Z,79.40
2019-02-26T17:36:07.112Z,79.10
2019-02-26T17:40:16.474Z,80.40
2019-02-26T17:44:20.006Z,79.40
2019-02-26T17:48:23.573Z,79.10
2019-02-26T17:52:27.405Z,78.60
2019-02-26T17:56:30.998Z,83.40
2019-02-26T18:00:36.245Z,81.20
2019-02-26T18:04:39.810Z,78.00
2019-02-26T18:08:43.385Z,75.90
2019-02-26T18:12:46.998Z,74.20
2019-02-26T18:16:50.847Z,73.70
2019-02-26T18:20:54.487Z,73.30
2019-02-26T18:24:58.093Z,74.80
2019-02-26T18:29:01.674Z,74.30
2019-02-26T18:33:05.324Z,74.80
2019-02-26T18:37:08.898Z,77.70
2019-02-26T18:41:12.479Z,82.10
2019-02-26T18:45:29.655Z,82.00
2019-02-26T18:49:33.202Z,82.90
2019-02-26T18:53:36.774Z,84.10
2019-02-26T18:57:43.337Z,87.10
2019-02-26T19:01:46.917Z,89.70
2019-02-26T19:05:53.808Z,89.70
2019-02-26T19:09:55.689Z,86.40
2019-02-26T19:13:59.241Z,87.50
2019-02-26T19:18:03.430Z,89.30
2019-02-26T19:22:07.184Z,90.50
2019-02-26T19:26:13.543Z,91.20
2019-02-26T19:30:18.282Z,91.30
2019-02-26T19:34:21.841Z,91.70
2019-02-26T19:38:27.278Z,90.80
2019-02-26T19:42:30.638Z,89.50
2019-02-26T19:46:34.202Z,85.80
2019-02-26T19:50:37.760Z,85.90
2019-02-26T19:54:42.000Z,87.30
2019-02-26T19:58:46.083Z,90.00
2019-02-26T20:02:49.673Z,90.90
2019-02-26T20:06:53.268Z,91.70
2019-02-26T20:10:57.804Z,91.60
2019-02-26T20:15:01.483Z,91.90
2019-02-26T20:19:05.119Z,91.30
2019-02-26T20:23:08.709Z,91.60
2019-02-26T20:27:12.288Z,92.60
2019-02-26T20:31:15.988Z,92.40
2019-02-26T20:35:19.540Z,93.30
2019-02-26T20:39:23.174Z,93.40
2019-02-26T20:43:26.768Z,92.50
2019-02-26T20:47:31.679Z,89.80
2019-02-26T20:51:35.557Z,90.70
2019-02-26T20:55:39.117Z,91.80
2019-02-26T20:59:42.682Z,92.70
2019-02-26T21:03:46.250Z,92.70
2019-02-26T21:07:49.863Z,93.60
2019-02-26T21:11:53.590Z,93.80
2019-02-26T21:15:58.651Z,93.40
2019-02-26T21:20:02.207Z,92.90
2019-02-26T21:24:05.799Z,94.00
2019-02-26T21:28:09.382Z,91.70
2019-02-26T21:32:12.951Z,91.20
2019-02-26T21:36:16.506Z,93.00
2019-02-26T21:40:20.069Z,92.60
2019-02-26T21:44:23.667Z,91.70
2019-02-26T21:48:27.258Z,91.10
2019-02-26T21:52:30.815Z,92.50
2019-02-26T21:56:34.379Z,91.40
2019-02-26T22:00:39.142Z,91.80
2019-02-26T22:04:42.550Z,91.70
2019-02-26T22:08:46.138Z,91.60
2019-02-26T22:12:49.748Z,90.30
2019-02-26T22:16:53.303Z,91.50
2019-02-26T22:20:56.866Z,92.70
2019-02-26T22:25:09.264Z,93.10
2019-02-26T22:29:07.938Z,93.20
2019-02-26T22:33:19.002Z,94.90
2019-02-26T22:37:26.998Z,94.20
2019-02-26T22:41:35.117Z,93.40
2019-02-26T22:45:38.919Z,92.60
2019-02-26T22:49:42.504Z,93.30
2019-02-26T22:53:46.076Z,93.90
2019-02-26T22:57:49.630Z,93.50
2019-02-26T23:01:54.798Z,93.50
2019-02-26T23:05:59.008Z,93.80
2019-02-26T23:10:03.174Z,93.80
2019-02-26T23:14:07.292Z,93.50
2019-02-26T23:18:10.837Z,91.90
2019-02-26T23:22:14.390Z,93.80
2019-02-26T23:26:18.122Z,94.00
2019-02-26T23:30:21.862Z,92.50
2019-02-26T23:34:25.449Z,92.00
2019-02-26T23:38:28.994Z,92.40
2019-02-26T23:42:32.552Z,92.80
2019-02-26T23:46:36.483Z,94.00
2019-02-26T23:50:40.059Z,94.20
2019-02-26T23:54:43.634Z,94.80
2019-02-26T23:58:47.198Z,95.00
